createdAt,value
2023-02-13T15:10:10.670Z,14.6
2023-02-13T15:20:11.600Z,14.6
2023-02-13T15:30:11.922Z,14.4
2023-02-13T15:40:12.529Z,14.4
2023-02-13T15:50:13.052Z,14.7
2023-02-13T16:00:13.646Z,14.3
2023-02-13T16:10:17.307Z,14.6
2023-02-13T16:20:21.196Z,14.6
2023-02-13T16:30:25.221Z,14.4
2023-02-13T16:40:30.449Z,14.4
2023-02-13T16:50:33.237Z,14.4
2023-02-13T17:00:36.608Z,14.3
2023-02-13T17:10:39.397Z,14.3
2023-02-13T17:20:41.935Z,14.3
2023-02-13T17:30:44.834Z,14.3
2023-02-13T17:40:47.513Z,14
2023-02-13T17:50:50.233Z,14.1
2023-02-13T18:00:53.185Z,14.1
2023-02-13T18:10:56.113Z,14
2023-02-13T18:20:58.794Z,13.9
2023-02-13T18:31:01.638Z,13.8
2023-02-13T18:41:04.030Z,13.8
2023-02-13T18:51:06.773Z,13.8
2023-02-13T19:01:09.470Z,13.6
2023-02-13T19:11:12.195Z,13.6
2023-02-13T19:21:15.033Z,13.8
2023-02-13T19:31:17.817Z,13.7
2023-02-13T19:41:20.341Z,13.7
2023-02-13T19:51:23.072Z,13.6
2023-02-13T20:01:25.885Z,13.6
2023-02-13T20:11:28.490Z,13.6
2023-02-13T20:21:31.193Z,13.6
2023-02-13T20:31:34.015Z,13.6
2023-02-13T20:41:37.170Z,13.5
2023-02-13T20:51:39.371Z,13.6
2023-02-13T21:10:08.936Z,13.6
2023-02-13T21:20:11.994Z,13.6
2023-02-13T21:30:13.809Z,13.6
2023-02-13T21:40:15.482Z,13.5
2023-02-13T21:50:17.647Z,13.5
2023-02-13T22:00:19.921Z,13.5
2023-02-13T22:10:23.206Z,13.4
2023-02-13T22:20:26.024Z,13.5
2023-02-13T22:30:29.507Z,13.6
2023-02-13T22:40:32.806Z,13.6
2023-02-13T22:50:36.229Z,13.6
2023-02-13T23:00:38.799Z,13.5
2023-02-13T23:10:40.868Z,13.5
2023-02-13T23:20:42.917Z,13.4
2023-02-13T23:30:45.203Z,13.4
2023-02-13T23:40:47.068Z,13.6
2023-02-13T23:50:49.206Z,13.4
